Time;durP1;ratioP1;P1;durP2;ratioP2;P2;SDS_P1;SDS_P2;PMS_P1;PMS_P2;Temp;Humidity;BMP_temperature;BMP_pressure;BME280_temperature;BME280_humidity;BME280_pressure;Samples;Min_cycle;Max_cycle;Signal;HPM_P1;HPM_P2
2022/11/27 00:02:24;;;;;;;42.85;8.57;;;;;;;10.96;100.00;99549.41;5003976;28;20054;-82
2022/11/27 00:04:51;;;;;;;43.33;10.07;;;;;;;10.89;100.00;99575.13;5011931;28;20081;-82
2022/11/27 00:07:18;;;;;;;43.00;10.40;;;;;;;10.93;100.00;99537.34;4999318;28;20097;-82
2022/11/27 00:09:45;;;;;;;47.03;9.45;;;;;;;10.78;100.00;99536.47;5003814;28;20053;-82
2022/11/27 00:12:12;;;;;;;38.03;8.88;;;;;;;11.03;100.00;99548.13;5003610;28;20073;-82
2022/11/27 00:14:39;;;;;;;48.35;9.73;;;;;;;11.04;100.00;99547.19;5002369;28;20053;-81
2022/11/27 00:17:06;;;;;;;47.75;9.30;;;;;;;11.16;100.00;99582.31;5000408;28;20808;-82
2022/11/27 00:19:33;;;;;;;50.92;10.25;;;;;;;11.16;100.00;99575.28;4998840;28;20060;-81
2022/11/27 00:22:00;;;;;;;46.03;10.30;;;;;;;11.15;100.00;99572.75;4999922;28;20112;-83
2022/11/27 00:24:26;;;;;;;47.25;8.18;;;;;;;11.04;100.00;99541.94;4999273;28;20058;-81
2022/11/27 00:26:53;;;;;;;43.88;7.80;;;;;;;11.36;100.00;99560.16;5000867;28;20058;-81
2022/11/27 00:29:20;;;;;;;39.47;8.38;;;;;;;11.29;100.00;99561.47;5001211;28;20492;-82
2022/11/27 00:31:46;;;;;;;45.35;9.13;;;;;;;11.34;100.00;99554.19;5003558;28;20047;-82
2022/11/27 00:34:13;;;;;;;43.60;10.43;;;;;;;11.21;100.00;99539.19;5001855;28;20050;-82
2022/11/27 00:36:40;;;;;;;38.42;7.05;;;;;;;11.24;100.00;99526.84;5000252;28;20648;-82
2022/11/27 00:39:13;;;;;;;39.15;9.57;;;;;;;11.28;100.00;99525.72;4997668;28;20046;-82
2022/11/27 00:41:40;;;;;;;34.33;7.78;;;;;;;11.33;100.00;99547.25;4998115;28;20124;-81
2022/11/27 00:44:06;;;;;;;39.45;8.35;;;;;;;11.45;100.00;99549.13;5005346;28;20050;-81
2022/11/27 00:46:34;;;;;;;36.45;8.82;;;;;;;11.34;100.00;99509.63;5008689;28;20061;-81
2022/11/27 00:49:03;;;;;;;35.22;7.82;;;;;;;11.27;100.00;99508.31;4998327;28;20101;-82
2022/11/27 00:51:30;;;;;;;45.25;8.82;;;;;;;11.34;100.00;99501.78;4998263;28;20608;-82
2022/11/27 00:53:58;;;;;;;45.25;9.18;;;;;;;11.17;100.00;99480.06;5003483;28;20053;-83
2022/11/27 00:56:27;;;;;;;48.08;9.73;;;;;;;11.39;100.00;99484.81;4999913;28;20073;-82
2022/11/27 00:58:55;;;;;;;49.40;8.48;;;;;;;11.45;100.00;99503.75;5003256;28;20061;-81
2022/11/27 01:01:26;;;;;;;35.65;8.20;;;;;;;11.52;100.00;99491.94;5000163;28;20120;-81
2022/11/27 01:03:55;;;;;;;44.95;8.23;;;;;;;11.53;100.00;99491.03;5001327;28;20431;-81
2022/11/27 01:06:22;;;;;;;33.08;7.25;;;;;;;11.57;100.00;99480.22;4996782;28;20099;-82
2022/11/27 01:08:49;;;;;;;45.40;9.07;;;;;;;11.50;100.00;99478.09;5002749;28;20057;-82
2022/11/27 01:11:34;;;;;;;36.00;7.03;;;;;;;11.56;100.00;99482.94;5011083;28;20181;-82
2022/11/27 01:14:05;;;;;;;48.42;7.47;;;;;;;11.65;100.00;99471.03;5008801;28;20054;-82
2022/11/27 01:16:33;;;;;;;33.08;7.03;;;;;;;11.48;100.00;99454.59;5009005;28;20050;-82
2022/11/27 01:19:01;;;;;;;36.92;7.85;;;;;;;11.69;100.00;99467.31;5016768;28;20128;-82
2022/11/27 01:21:31;;;;;;;46.13;7.45;;;;;;;11.61;100.00;99448.59;5011141;28;20098;-82
2022/11/27 01:23:59;;;;;;;30.77;8.18;;;;;;;11.56;100.00;99441.00;5009545;28;20050;-82
2022/11/27 01:26:26;;;;;;;39.22;8.02;;;;;;;11.54;100.00;99424.53;5011220;28;20054;-82
2022/11/27 01:28:55;;;;;;;34.45;7.22;;;;;;;11.52;100.00;99437.72;5011510;28;20045;-82
2022/11/27 01:31:27;;;;;;;36.72;8.65;;;;;;;11.42;100.00;99418.28;5010601;28;20480;-81
2022/11/27 01:33:59;;;;;;;31.73;7.15;;;;;;;11.76;100.00;99455.50;5015345;28;20053;-81
2022/11/27 01:36:27;;;;;;;26.65;7.10;;;;;;;11.74;100.00;99475.75;5012736;28;20045;-81
2022/11/27 01:38:55;;;;;;;31.92;6.18;;;;;;;11.69;100.00;99472.56;5012024;28;20050;-81
2022/11/27 01:41:26;;;;;;;29.98;5.75;;;;;;;11.90;100.00;99465.13;5014264;28;20057;-81
2022/11/27 01:43:59;;;;;;;27.38;6.85;;;;;;;11.85;100.00;99467.19;5023991;28;20517;-82
2022/11/27 01:46:28;;;;;;;19.52;4.65;;;;;;;11.98;100.00;99490.91;5010915;28;20072;-81
2022/11/27 01:49:02;;;;;;;22.52;4.32;;;;;;;11.85;100.00;99475.91;5022525;28;20436;-82
2022/11/27 01:51:30;;;;;;;21.95;6.03;;;;;;;12.00;100.00;99461.00;4999350;28;20061;-82
2022/11/27 01:53:57;;;;;;;22.92;5.13;;;;;;;12.07;100.00;99451.78;5014338;28;20050;-82
2022/11/27 01:56:25;;;;;;;23.70;4.78;;;;;;;12.10;100.00;99453.38;5008578;28;20050;-82
2022/11/27 01:58:53;;;;;;;17.63;4.80;;;;;;;12.10;100.00;99451.59;5004913;28;20100;-82
2022/11/27 02:01:23;;;;;;;19.55;4.40;;;;;;;12.08;100.00;99458.72;5012755;28;20063;-82
2022/11/27 02:03:50;;;;;;;20.55;4.07;;;;;;;12.18;100.00;99476.50;5014126;28;20141;-82
2022/11/27 02:06:16;;;;;;;21.52;4.70;;;;;;;11.75;100.00;99448.56;5020609;28;20594;-81
2022/11/27 02:08:43;;;;;;;17.63;3.70;;;;;;;12.11;100.00;99431.44;5012353;28;20054;-82
2022/11/27 02:11:47;;;;;;;18.35;3.53;;;;;;;12.11;100.00;99445.41;5003636;28;20082;-81
2022/11/27 02:14:38;;;;;;;18.13;4.20;;;;;;;12.01;100.00;99462.69;4997039;28;20101;-82
2022/11/27 02:17:19;;;;;;;16.60;3.47;;;;;;;11.95;100.00;99435.06;5009861;28;20104;-82
2022/11/27 02:20:14;;;;;;;19.88;4.28;;;;;;;12.07;100.00;99443.06;5016151;28;20104;-81
2022/11/27 02:23:03;;;;;;;21.23;3.28;;;;;;;12.16;100.00;99447.72;5001320;28;20041;-81
2022/11/27 02:25:47;;;;;;;22.85;4.72;;;;;;;11.91;100.00;99428.31;5013623;28;20104;-82
2022/11/27 02:28:58;;;;;;;23.27;5.53;;;;;;;12.01;100.00;99433.00;5013746;28;20627;-82
2022/11/27 02:31:30;;;;;;;24.02;4.25;;;;;;;11.77;100.00;99405.59;4928116;29;20110;-82
2022/11/27 02:34:14;;;;;;;18.25;5.38;;;;;;;11.93;100.00;99428.22;4937404;29;20138;-82
2022/11/27 02:36:42;;;;;;;;;;;;;;;11.91;100.00;99432.72;4989406;28;20096;-82
2022/11/27 02:39:15;;;;;;;15.60;3.30;;;;;;;11.95;100.00;99423.72;5011775;28;19926;-82
2022/11/27 02:41:49;;;;;;;15.65;3.58;;;;;;;11.66;100.00;99387.06;5012015;28;20120;-82
2022/11/27 02:44:17;;;;;;;16.95;4.03;;;;;;;11.93;100.00;99428.22;5011178;28;20093;-82
2022/11/27 02:46:45;;;;;;;17.08;3.22;;;;;;;12.00;100.00;99432.13;5011904;28;20201;-82
2022/11/27 02:49:16;;;;;;;22.48;4.00;;;;;;;11.85;100.00;99431.31;5013329;28;20058;-82
2022/11/27 02:51:49;;;;;;;15.38;3.63;;;;;;;11.81;100.00;99428.97;5011726;28;20046;-82
2022/11/27 02:54:18;;;;;;;;;;;;;;;11.91;100.00;99438.81;5013380;28;20100;-82
2022/11/27 02:56:48;;;;;;;16.25;4.35;;;;;;;12.02;100.00;99463.50;5012452;28;20425;-81
2022/11/27 02:59:17;;;;;;;16.35;3.45;;;;;;;11.83;100.00;99456.81;4996953;28;20046;-81
2022/11/27 03:01:52;;;;;;;13.35;2.30;;;;;;;11.74;100.00;99426.75;5012707;28;20054;-81
2022/11/27 03:04:27;;;;;;;11.30;2.13;;;;;;;11.80;100.00;99488.44;5012278;28;20129;-82
2022/11/27 03:06:58;;;;;;;7.05;1.88;;;;;;;11.81;100.00;99484.03;5008403;28;20053;-83
2022/11/27 03:09:34;;;;;;;11.05;2.35;;;;;;;11.88;100.00;99499.31;5006814;28;20053;-81
2022/11/27 03:12:04;;;;;;;11.13;2.10;;;;;;;11.73;100.00;99495.84;5010311;28;20103;-83
2022/11/27 03:14:32;;;;;;;8.57;2.67;;;;;;;11.71;100.00;99516.09;5013325;28;20455;-81
2022/11/27 03:17:18;;;;;;;16.05;3.05;;;;;;;11.53;100.00;99504.97;5011429;28;20112;-82
2022/11/27 03:19:55;;;;;;;13.93;2.60;;;;;;;11.48;100.00;99514.88;5011403;28;20056;-81
2022/11/27 03:22:25;;;;;;;15.32;2.95;;;;;;;11.37;100.00;99509.47;5011175;28;20099;-81
2022/11/27 03:24:52;;;;;;;10.63;2.10;;;;;;;11.42;100.00;99517.88;5005759;28;20054;-82
2022/11/27 03:27:30;;;;;;;11.25;2.75;;;;;;;11.56;100.00;99538.00;5012253;28;20050;-82
2022/11/27 03:30:00;;;;;;;13.30;3.10;;;;;;;11.41;100.00;99539.78;5012456;28;20446;-82
2022/11/27 03:32:29;;;;;;;17.42;3.50;;;;;;;11.35;100.00;99530.50;5017609;28;20045;-82
2022/11/27 03:34:56;;;;;;;14.35;2.92;;;;;;;11.48;100.00;99543.72;5010283;28;20049;-82
2022/11/27 03:37:23;;;;;;;12.75;2.90;;;;;;;11.48;100.00;99546.31;5011864;28;20057;-82
2022/11/27 03:39:50;;;;;;;12.00;2.85;;;;;;;11.62;100.00;99553.38;5012710;28;20050;-82
2022/11/27 03:42:57;;;;;;;14.60;2.67;;;;;;;11.69;100.00;99573.03;5010248;28;20100;-82
2022/11/27 03:45:50;;;;;;;15.95;3.40;;;;;;;11.52;100.00;99592.38;5011928;28;20045;-82
2022/11/27 03:48:42;;;;;;;11.32;2.15;;;;;;;11.67;100.00;99602.88;5002340;28;20042;-82
2022/11/27 03:51:50;;;;;;;13.07;2.13;;;;;;;11.73;100.00;99602.53;5016292;28;20049;-85
2022/11/27 03:54:42;;;;;;;10.27;2.45;;;;;;;11.68;100.00;99604.59;4976852;28;20056;-82
2022/11/27 03:57:17;;;;;;;14.35;2.60;;;;;;;11.38;100.00;99618.56;5004425;28;20121;-82
2022/11/27 03:59:48;;;;;;;8.27;1.77;;;;;;;11.58;100.00;99620.03;4999237;28;20050;-81
2022/11/27 04:02:16;;;;;;;11.13;2.05;;;;;;;11.37;100.00;99603.78;5011247;28;20139;-81
2022/11/27 04:04:43;;;;;;;8.57;2.30;;;;;;;11.48;100.00;99627.59;5013313;28;20057;-81
2022/11/27 04:07:16;;;;;;;17.60;2.25;;;;;;;11.37;100.00;99627.38;5010854;28;20099;-81
2022/11/27 04:09:43;;;;;;;10.95;2.38;;;;;;;11.06;100.00;99628.31;5010033;28;20053;-82
2022/11/27 04:12:10;;;;;;;17.55;3.28;;;;;;;11.00;100.00;99629.50;5010530;28;20057;-81
2022/11/27 04:14:36;;;;;;;23.23;2.95;;;;;;;10.48;100.00;99595.75;5010775;28;20049;-81
2022/11/27 04:17:03;;;;;;;15.10;2.95;;;;;;;10.77;100.00;99604.63;5013626;28;20104;-81
2022/11/27 04:19:30;;;;;;;15.48;3.33;;;;;;;10.73;100.00;99632.75;5011338;28;20061;-80
2022/11/27 04:21:57;;;;;;;14.38;3.65;;;;;;;10.89;100.00;99637.97;5011506;28;20462;-81
2022/11/27 04:24:24;;;;;;;27.33;4.28;;;;;;;10.96;100.00;99656.78;5011388;28;20054;-81
2022/11/27 04:26:50;;;;;;;15.60;4.20;;;;;;;10.70;100.00;99632.09;4999980;28;20058;-81
2022/11/27 04:29:17;;;;;;;32.13;4.25;;;;;;;10.80;100.00;99656.78;5011423;28;20104;-81
2022/11/27 04:31:44;;;;;;;21.40;4.53;;;;;;;10.86;100.00;99676.59;5012523;28;20119;-81
2022/11/27 04:34:11;;;;;;;15.88;4.20;;;;;;;10.80;100.00;99681.22;5003663;28;20085;-81
2022/11/27 04:36:37;;;;;;;28.25;5.22;;;;;;;10.66;100.00;99664.56;4989574;28;20046;-81
2022/11/27 04:39:05;;;;;;;14.25;3.22;;;;;;;10.82;100.00;99661.03;5007880;28;20082;-81
2022/11/27 04:41:32;;;;;;;23.15;3.92;;;;;;;10.85;100.00;99683.56;5004524;28;20100;-81
2022/11/27 04:43:59;;;;;;;25.75;4.65;;;;;;;10.84;100.00;99676.66;5009746;28;20057;-82
2022/11/27 04:46:26;;;;;;;22.52;3.95;;;;;;;10.64;100.00;99654.19;5010742;28;20104;-82
2022/11/27 04:48:53;;;;;;;19.33;3.70;;;;;;;10.74;100.00;99678.09;4998113;28;20054;-82
2022/11/27 04:51:19;;;;;;;30.48;5.60;;;;;;;10.53;100.00;99683.56;5010774;28;20057;-80
2022/11/27 04:53:46;;;;;;;26.20;4.30;;;;;;;10.44;100.00;99655.28;5010689;28;20049;-81
2022/11/27 04:56:13;;;;;;;26.00;4.53;;;;;;;10.71;100.00;99667.78;5009334;28;20076;-80
2022/11/27 04:58:40;;;;;;;24.85;5.80;;;;;;;10.89;100.00;99676.38;5011759;28;20046;-81
2022/11/27 05:01:07;;;;;;;24.42;4.57;;;;;;;10.89;100.00;99694.72;5011130;28;20046;-81
2022/11/27 05:03:35;;;;;;;21.98;4.63;;;;;;;10.77;100.00;99701.50;5010818;28;20132;-81
2022/11/27 05:06:02;;;;;;;28.98;4.63;;;;;;;10.74;100.00;99706.91;5008771;28;20121;-82
2022/11/27 05:08:31;;;;;;;21.90;5.47;;;;;;;10.64;100.00;99689.09;5013583;28;20050;-81
2022/11/27 05:11:01;;;;;;;24.80;4.68;;;;;;;10.72;100.00;99714.00;5000369;28;20412;-82
2022/11/27 05:13:27;;;;;;;18.30;4.25;;;;;;;10.70;100.00;99734.19;5017867;28;20042;-81
2022/11/27 05:15:54;;;;;;;24.23;4.38;;;;;;;10.60;100.00;99742.50;5016017;28;20046;-81
2022/11/27 05:18:21;;;;;;;19.60;3.60;;;;;;;10.78;100.00;99726.75;5013466;28;20046;-81
2022/11/27 05:20:56;;;;;;;27.33;5.05;;;;;;;10.66;100.00;99749.22;4999993;28;20054;-82
2022/11/27 05:23:23;;;;;;;17.92;3.83;;;;;;;10.71;100.00;99754.19;5012932;28;20065;-81
2022/11/27 05:25:49;;;;;;;19.80;4.75;;;;;;;10.70;100.00;99760.38;5012720;28;20050;-81
2022/11/27 05:28:16;;;;;;;20.42;4.82;;;;;;;10.57;100.00;99744.44;5014621;28;20100;-82
2022/11/27 05:30:50;;;;;;;17.30;3.85;;;;;;;10.65;100.00;99742.28;5023960;28;20049;-81
2022/11/27 05:33:17;;;;;;;22.17;4.28;;;;;;;10.63;100.00;99757.22;5013221;28;20104;-82
2022/11/27 05:35:44;;;;;;;20.63;4.40;;;;;;;10.51;100.00;99753.47;5009780;28;20120;-82
2022/11/27 05:38:12;;;;;;;21.38;4.32;;;;;;;10.58;100.00;99754.84;5014018;28;20050;-82
2022/11/27 05:40:38;;;;;;;23.67;4.90;;;;;;;10.46;100.00;99758.09;5014770;28;20050;-82
2022/11/27 05:43:05;;;;;;;22.02;4.55;;;;;;;10.51;100.00;99766.56;5019762;28;20541;-82
2022/11/27 05:45:32;;;;;;;21.33;4.60;;;;;;;10.63;100.00;99771.16;5015104;28;20149;-82
2022/11/27 05:47:59;;;;;;;16.65;4.68;;;;;;;10.52;100.00;99770.88;5013931;28;20427;-82
2022/11/27 05:50:26;;;;;;;21.83;4.28;;;;;;;10.54;100.00;99761.16;5012674;28;20100;-82
2022/11/27 05:52:52;;;;;;;17.60;3.95;;;;;;;10.61;100.00;99770.38;5016065;28;20057;-81
2022/11/27 05:55:19;;;;;;;22.45;4.72;;;;;;;10.48;100.00;99776.34;5013202;28;20488;-81
2022/11/27 05:57:45;;;;;;;28.08;4.68;;;;;;;10.12;100.00;99738.06;5019481;28;20457;-81
2022/11/27 06:00:13;;;;;;;17.38;4.32;;;;;;;10.28;100.00;99778.19;5010100;28;20058;-81
2022/11/27 06:02:40;;;;;;;16.52;4.82;;;;;;;10.25;100.00;99760.91;5018735;28;20056;-82
2022/11/27 06:05:07;;;;;;;17.48;3.70;;;;;;;10.08;100.00;99769.59;5022163;28;20049;-81
2022/11/27 06:07:34;;;;;;;17.88;3.67;;;;;;;10.29;100.00;99777.28;5012575;28;20065;-81
2022/11/27 06:10:00;;;;;;;15.68;3.47;;;;;;;10.35;100.00;99776.16;5013594;28;20104;-81
2022/11/27 06:12:29;;;;;;;22.10;5.40;;;;;;;10.13;100.00;99747.59;5014925;28;20463;-82
2022/11/27 06:14:56;;;;;;;25.95;5.20;;;;;;;9.85;100.00;99775.16;5013847;28;20050;-81
2022/11/27 06:17:23;;;;;;;26.42;5.28;;;;;;;9.93;100.00;99772.97;5012562;28;20066;-81
2022/11/27 06:19:50;;;;;;;15.50;4.07;;;;;;;10.25;100.00;99794.03;5011226;28;20046;-83
2022/11/27 06:22:17;;;;;;;25.70;4.75;;;;;;;10.19;100.00;99813.53;5014294;28;20062;-81
2022/11/27 06:24:43;;;;;;;25.63;4.45;;;;;;;10.19;100.00;99800.44;5002782;28;20116;-82
2022/11/27 06:27:11;;;;;;;25.42;5.32;;;;;;;9.91;100.00;99789.69;5012379;28;20050;-81
2022/11/27 06:29:38;;;;;;;17.60;4.00;;;;;;;10.17;100.00;99799.69;5014333;28;20123;-82
2022/11/27 06:32:05;;;;;;;25.60;5.63;;;;;;;9.83;100.00;99777.84;5013264;28;20450;-82
2022/11/27 06:34:32;;;;;;;23.48;4.43;;;;;;;10.05;100.00;99818.59;5013827;28;20129;-81
2022/11/27 06:36:59;;;;;;;21.65;4.43;;;;;;;10.16;100.00;99828.53;5012344;28;20053;-81
2022/11/27 06:39:26;;;;;;;24.20;4.72;;;;;;;9.89;100.00;99816.75;5013303;28;20053;-81
2022/11/27 06:41:52;;;;;;;28.58;5.40;;;;;;;9.98;100.00;99820.66;5013409;28;20049;-82
2022/11/27 06:44:19;;;;;;;32.45;5.25;;;;;;;10.14;100.00;99831.22;5011942;28;20123;-81
2022/11/27 06:46:46;;;;;;;20.13;4.50;;;;;;;10.08;100.00;99827.13;5011503;28;20100;-81
2022/11/27 06:49:13;;;;;;;18.92;4.38;;;;;;;10.25;100.00;99835.91;5013003;28;20057;-80
2022/11/27 06:51:39;;;;;;;20.75;4.93;;;;;;;10.29;100.00;99860.13;5011262;28;20046;-81
2022/11/27 06:54:06;;;;;;;17.77;5.13;;;;;;;10.26;100.00;99866.38;5018500;28;20099;-81
2022/11/27 06:56:33;;;;;;;12.85;3.58;;;;;;;10.21;100.00;99857.91;5013234;28;20049;-81
2022/11/27 06:59:00;;;;;;;19.58;3.42;;;;;;;10.16;100.00;99886.06;5005756;28;20043;-81
2022/11/27 07:01:29;;;;;;;14.93;3.95;;;;;;;10.03;100.00;99885.84;5003275;28;20144;-79
2022/11/27 07:03:56;;;;;;;19.92;4.10;;;;;;;9.87;100.00;99851.75;5009197;28;20069;-81
2022/11/27 07:06:24;;;;;;;24.38;4.40;;;;;;;10.06;100.00;99883.91;5004858;28;20061;-82
2022/11/27 07:08:53;;;;;;;21.25;3.72;;;;;;;9.86;100.00;99835.22;5011684;28;20153;-80
2022/11/27 07:11:22;;;;;;;25.02;5.03;;;;;;;9.91;100.00;99875.97;5002779;28;20479;-82
2022/11/27 07:13:50;;;;;;;21.90;4.18;;;;;;;9.74;100.00;99851.50;5009668;28;20049;-81
2022/11/27 07:16:17;;;;;;;23.20;4.88;;;;;;;9.85;100.00;99875.34;5003206;28;20096;-81
2022/11/27 07:18:48;;;;;;;40.30;5.45;;;;;;;9.85;100.00;99877.13;5002185;28;20484;-82
2022/11/27 07:21:15;;;;;;;21.98;3.70;;;;;;;9.73;100.00;99857.63;5005078;28;20042;-82
2022/11/27 07:23:42;;;;;;;22.58;4.88;;;;;;;9.49;100.00;99852.66;5003937;28;20503;-82
2022/11/27 07:26:14;;;;;;;19.38;3.80;;;;;;;9.55;100.00;99848.06;5002800;28;20046;-81
2022/11/27 07:28:44;;;;;;;13.90;3.67;;;;;;;9.79;100.00;99883.50;5012552;28;20101;-80
2022/11/27 07:31:13;;;;;;;18.35;4.63;;;;;;;9.23;100.00;99808.63;5012176;28;20077;-81
2022/11/27 07:33:40;;;;;;;25.85;4.90;;;;;;;9.64;100.00;99881.59;5008498;28;20045;-82
2022/11/27 07:36:11;;;;;;;20.67;4.78;;;;;;;9.34;100.00;99871.66;5008835;28;20053;-80
2022/11/27 07:38:39;;;;;;;17.48;4.80;;;;;;;9.70;100.00;99894.38;5006398;28;20046;-81
2022/11/27 07:41:06;;;;;;;24.10;5.13;;;;;;;9.29;100.00;99839.69;5008000;28;20479;-81
2022/11/27 07:43:34;;;;;;;21.02;4.97;;;;;;;9.50;100.00;99906.59;5001413;28;20158;-80
2022/11/27 07:46:07;;;;;;;25.33;4.25;;;;;;;9.36;100.00;99876.81;5003721;28;20057;-81
2022/11/27 07:48:34;;;;;;;22.88;4.45;;;;;;;9.48;100.00;99903.22;5001845;28;20128;-80
2022/11/27 07:51:00;;;;;;;21.42;4.20;;;;;;;9.24;100.00;99902.59;5002672;28;20436;-82
2022/11/27 07:53:27;;;;;;;20.23;4.13;;;;;;;9.29;100.00;99860.56;5003758;28;20100;-82
2022/11/27 07:55:58;;;;;;;27.33;4.93;;;;;;;9.24;100.00;99880.84;5012362;28;20077;-80
2022/11/27 07:58:25;;;;;;;28.27;4.95;;;;;;;9.09;100.00;99864.94;5012015;28;20041;-80
2022/11/27 08:00:52;;;;;;;27.17;4.35;;;;;;;9.52;100.00;99924.00;4997358;28;20105;-80
2022/11/27 08:03:18;;;;;;;22.25;4.78;;;;;;;9.25;100.00;99886.00;5010107;28;20045;-80
2022/11/27 08:05:45;;;;;;;25.52;5.20;;;;;;;9.15;100.00;99869.03;5001584;28;20058;-82
2022/11/27 08:08:12;;;;;;;17.92;3.88;;;;;;;9.37;100.00;99884.59;5002624;28;20109;-82
2022/11/27 08:10:39;;;;;;;25.17;5.15;;;;;;;9.19;100.00;99861.91;4994648;28;20050;-82
2022/11/27 08:13:06;;;;;;;21.27;4.20;;;;;;;9.25;100.00;99914.72;5000718;28;20049;-82
2022/11/27 08:15:33;;;;;;;23.40;4.43;;;;;;;9.19;100.00;99885.41;5012932;28;20163;-82
2022/11/27 08:18:00;;;;;;;28.77;6.57;;;;;;;9.31;100.00;99909.25;5010740;28;20487;-81
2022/11/27 08:20:28;;;;;;;30.98;4.53;;;;;;;9.37;100.00;99910.72;5001968;28;20053;-81
2022/11/27 08:22:54;;;;;;;19.90;3.65;;;;;;;8.99;100.00;99881.94;4997609;28;20052;-81
2022/11/27 08:25:28;;;;;;;18.17;4.15;;;;;;;9.07;100.00;99903.34;5007356;28;20050;-81
2022/11/27 08:27:55;;;;;;;19.05;4.53;;;;;;;9.26;100.00;99937.31;5006796;28;20472;-81
2022/11/27 08:30:25;;;;;;;22.02;4.70;;;;;;;9.16;100.00;99920.38;5006151;28;20045;-83
2022/11/27 08:32:51;;;;;;;21.20;4.68;;;;;;;8.79;100.00;99892.44;5009882;28;20045;-82
2022/11/27 08:35:18;;;;;;;22.45;5.07;;;;;;;8.92;100.00;99925.78;5010393;28;20041;-82
2022/11/27 08:37:45;;;;;;;16.60;4.00;;;;;;;9.25;100.00;99922.56;5007248;28;20049;-82
2022/11/27 08:40:12;;;;;;;28.33;5.47;;;;;;;8.68;100.00;99919.00;5001582;28;20096;-82
2022/11/27 08:42:39;;;;;;;27.90;5.10;;;;;;;8.74;100.00;99937.81;5010708;28;20504;-82
2022/11/27 08:45:06;;;;;;;22.70;4.10;;;;;;;8.88;100.00;99942.47;5010328;28;20046;-82
2022/11/27 08:47:32;;;;;;;21.50;5.15;;;;;;;9.06;100.00;99932.97;5010234;28;20127;-81
2022/11/27 08:49:59;;;;;;;21.23;4.78;;;;;;;9.07;100.00;99934.69;5011261;28;20053;-82
2022/11/27 08:52:26;;;;;;;22.83;4.45;;;;;;;9.15;100.00;99944.78;5010334;28;20054;-82
2022/11/27 08:54:52;;;;;;;20.23;5.43;;;;;;;8.84;100.00;99919.19;5010423;28;20113;-81
2022/11/27 08:57:23;;;;;;;20.13;4.93;;;;;;;8.92;100.00;99961.44;5006400;28;20473;-82
2022/11/27 08:59:49;;;;;;;25.52;5.00;;;;;;;8.88;100.00;99958.13;5012451;28;20057;-81
2022/11/27 09:02:16;;;;;;;22.90;6.22;;;;;;;8.88;100.00;99939.00;5011992;28;20045;-82
2022/11/27 09:04:43;;;;;;;33.40;6.88;;;;;;;8.92;100.00;99954.50;5009887;28;20068;-82
2022/11/27 09:07:13;;;;;;;15.90;3.67;;;;;;;9.10;100.00;99942.38;5009390;28;20057;-83
2022/11/27 09:09:39;;;;;;;21.88;5.65;;;;;;;9.08;100.00;99974.69;5012507;28;20052;-84
2022/11/27 09:12:07;;;;;;;23.17;4.65;;;;;;;9.36;100.00;99981.31;5011030;28;20108;-83
2022/11/27 09:14:33;;;;;;;18.55;4.18;;;;;;;9.55;100.00;99973.50;5010104;28;20050;-84
2022/11/27 09:17:00;;;;;;;18.88;4.10;;;;;;;9.73;100.00;99984.88;5008985;28;20053;-82
2022/11/27 09:19:27;;;;;;;24.08;5.00;;;;;;;9.67;100.00;99992.09;5013177;28;20542;-84
2022/11/27 09:21:55;;;;;;;22.70;4.53;;;;;;;9.60;100.00;99942.78;5008633;28;20104;-83
2022/11/27 09:24:21;;;;;;;21.00;5.05;;;;;;;9.76;100.00;99976.91;5010561;28;20739;-82
2022/11/27 09:26:48;;;;;;;20.63;4.10;;;;;;;9.83;100.00;99952.16;5002222;28;20053;-83
2022/11/27 09:29:15;;;;;;;19.38;3.45;;;;;;;10.08;100.00;99983.22;5002226;28;20080;-84
2022/11/27 09:31:41;;;;;;;22.23;4.03;;;;;;;10.25;100.00;99988.50;5003892;28;20073;-83
2022/11/27 09:34:08;;;;;;;20.50;3.42;;;;;;;10.21;100.00;99973.03;4995892;28;20058;-84
2022/11/27 09:36:35;;;;;;;26.20;4.38;;;;;;;10.11;100.00;99967.41;5004195;28;20546;-83
2022/11/27 09:39:02;;;;;;;19.58;3.80;;;;;;;10.01;100.00;99953.06;5006647;28;20057;-83
2022/11/27 09:41:50;;;;;;;15.57;3.72;;;;;;;10.01;100.00;99951.28;4998291;28;20393;-83
2022/11/27 09:44:44;;;;;;;22.30;4.18;;;;;;;9.85;100.00;99977.31;5013992;28;20108;-84
2022/11/27 09:47:18;;;;;;;;;;;;;;;10.05;100.00;100006.91;5005780;28;20126;-83
2022/11/27 09:50:02;;;;;;;26.35;5.85;;;;;;;9.71;100.00;99979.72;5004973;28;20342;-83
2022/11/27 09:52:31;;;;;;;;;;;;;;;9.86;100.00;100013.00;4998469;28;20102;-84
2022/11/27 09:55:04;;;;;;;30.38;6.18;;;;;;;9.88;100.00;100011.16;5011639;28;19925;-82
2022/11/27 09:57:36;;;;;;;20.55;4.47;;;;;;;9.48;100.00;99970.31;5008958;28;20054;-83
2022/11/27 10:00:11;;;;;;;25.50;4.72;;;;;;;9.61;100.00;99994.97;5009820;28;20049;-84
2022/11/27 10:02:40;;;;;;;29.48;6.75;;;;;;;9.25;100.00;99953.91;5009691;28;20057;-84
2022/11/27 10:05:32;;;;;;;25.13;5.13;;;;;;;9.61;100.00;99968.00;5010734;28;20061;-83
2022/11/27 10:08:11;;;;;;;24.77;5.70;;;;;;;9.92;100.00;100021.50;5014183;28;20361;-84
2022/11/27 10:11:04;;;;;;;21.65;4.05;;;;;;;10.00;100.00;100016.75;5010099;28;20103;-84
2022/11/27 10:13:58;;;;;;;16.58;4.05;;;;;;;10.13;100.00;100027.47;4996148;28;20053;-83
2022/11/27 10:16:28;;;;;;;24.92;4.47;;;;;;;10.30;100.00;100045.00;5005974;28;20045;-84
2022/11/27 10:19:10;;;;;;;25.73;6.03;;;;;;;10.04;100.00;100010.47;5024548;28;20077;-84
2022/11/27 10:21:55;;;;;;;22.85;4.93;;;;;;;10.20;100.00;100027.13;5015049;28;20463;-84
2022/11/27 10:24:43;;;;;;;17.40;3.72;;;;;;;10.46;100.00;100022.44;5014865;28;20057;-84
2022/11/27 10:27:23;;;;;;;35.13;6.88;;;;;;;10.48;100.00;100040.69;5025612;28;20060;-85
2022/11/27 10:29:54;;;;;;;25.10;6.28;;;;;;;10.44;100.00;100011.19;5013431;28;20054;-84
2022/11/27 10:32:25;;;;;;;31.88;5.03;;;;;;;10.18;100.00;99981.88;5015061;28;20685;-84
2022/11/27 10:35:21;;;;;;;27.17;5.47;;;;;;;10.22;100.00;100009.59;5011530;28;20077;-83
2022/11/27 10:37:55;;;;;;;20.30;5.13;;;;;;;10.15;100.00;99983.81;5010837;28;20135;-85
2022/11/27 10:40:35;;;;;;;23.42;5.30;;;;;;;10.12;100.00;99979.53;5011926;28;20324;-82
2022/11/27 10:43:20;;;;;;;23.85;4.60;;;;;;;10.01;100.00;99947.84;5013284;28;20616;-83
2022/11/27 10:45:55;;;;;;;27.63;5.68;;;;;;;10.22;100.00;100012.19;5012788;28;20104;-82
2022/11/27 10:48:22;;;;;;;26.08;5.63;;;;;;;10.12;100.00;99978.69;5042885;28;20058;-87
2022/11/27 10:50:50;;;;;;;37.65;5.32;;;;;;;10.11;100.00;99958.69;5013864;28;20442;-85
2022/11/27 10:53:29;;;;;;;32.88;5.07;;;;;;;10.34;100.00;99999.47;5013245;28;20049;-84
2022/11/27 10:56:12;;;;;;;26.73;7.20;;;;;;;10.27;100.00;99993.69;5013855;28;20442;-85
2022/11/27 10:59:17;;;;;;;17.55;4.85;;;;;;;10.45;100.00;99999.81;5011266;28;20116;-85
2022/11/27 11:01:49;;;;;;;32.03;6.97;;;;;;;10.44;100.00;99988.47;4918531;29;20054;-85
2022/11/27 11:04:22;;;;;;;21.70;5.53;;;;;;;10.00;100.00;99930.44;4931726;29;20518;-85
2022/11/27 11:07:24;;;;;;;24.75;5.55;;;;;;;9.91;100.00;99962.25;4979493;28;20064;-84
2022/11/27 11:09:51;;;;;;;25.00;6.20;;;;;;;9.87;100.00;99957.16;5013346;28;20049;-84
2022/11/27 11:12:20;;;;;;;22.25;4.53;;;;;;;10.21;100.00;99996.56;5012399;28;20042;-85
2022/11/27 11:14:55;;;;;;;29.77;5.97;;;;;;;10.29;100.00;99985.72;5013933;28;20060;-86
2022/11/27 11:17:33;;;;;;;26.60;5.97;;;;;;;10.08;100.00;99975.38;5013756;28;20385;-84
2022/11/27 11:20:20;;;;;;;27.20;5.93;;;;;;;10.04;100.00;99963.38;5013464;28;20471;-84
2022/11/27 11:22:47;;;;;;;27.08;5.68;;;;;;;10.08;100.00;99963.16;5001089;28;20057;-84
2022/11/27 11:25:19;;;;;;;30.92;5.03;;;;;;;10.10;100.00;99978.78;5012750;28;20046;-83
2022/11/27 11:27:48;;;;;;;31.17;7.18;;;;;;;10.45;100.00;100010.28;5003725;28;20057;-85
2022/11/27 11:30:25;;;;;;;22.83;5.70;;;;;;;10.38;100.00;100009.72;5008335;28;20435;-84
2022/11/27 11:33:00;;;;;;;27.23;5.43;;;;;;;10.42;100.00;99973.78;5009226;28;20050;-84
2022/11/27 11:35:35;;;;;;;23.42;5.05;;;;;;;10.73;100.00;100003.66;5003478;28;20092;-84
2022/11/27 11:38:04;;;;;;;21.13;4.35;;;;;;;10.40;100.00;99975.63;4998368;28;20050;-85